ADDS METAR Data INFO
IDs: Format: Raw Decoded Include TAF

Data at: 1146 UTC 17 Jul 2018

KSCD 171135Z AUTO 00000KT 5SM BR OVC004 23/23 A3005 RMK AO2 T02300230
KSCD 171115Z AUTO 00000KT 7SM OVC004 23/23 A3005 RMK AO2 T02300230
KSCD 171055Z AUTO 00000KT 7SM OVC006 23/23 A3005 RMK AO2 T02300230
KSCD 171035Z AUTO 00000KT 7SM OVC006 23/23 A3005 RMK AO2 T02300230
KSCD 171015Z AUTO 00000KT 7SM OVC006 23/23 A3004 RMK AO2 T02300230
KSCD 170955Z AUTO 00000KT 7SM OVC006 23/23 A3004 RMK AO2 T02300230
KSCD 170935Z AUTO 00000KT 7SM BKN010 BKN110 23/23 A3003 RMK AO2 T02270227
KSCD 170915Z AUTO 00000KT 7SM BKN110 23/23 A3002 RMK AO2 T02270227
KSCD 170855Z AUTO 00000KT 7SM BKN110 23/23 A3002 RMK AO2 T02300230
KSCD 170835Z AUTO 00000KT 7SM OVC100 23/23 A3002 RMK AO2 T02310231
KSCD 170815Z AUTO 00000KT 7SM OVC100 23/23 A3002 RMK AO2 T02320232
KSCD 170755Z AUTO 00000KT 7SM BKN110 23/23 A3002 RMK AO2 T02300230
KSCD 170735Z AUTO 00000KT 7SM BKN110 24/24 A3002 RMK AO2 T02350235
KSCD 170715Z AUTO 00000KT 7SM BKN110 24/24 A3002 RMK AO2 T02350235
KSCD 170655Z AUTO 00000KT 7SM BKN110 24/24 A3002 RMK AO2 T02360236
KSCD 170635Z AUTO 00000KT 7SM BKN120 24/24 A3002 RMK AO2 T02370237
KSCD 170615Z AUTO 00000KT 10SM SCT120 24/24 A3002 RMK AO2 T02400240
KSCD 170555Z AUTO 00000KT 10SM SCT120 24/24 A3002 RMK AO2 T02410241 10282 20241 402950218
KSCD 170535Z AUTO 00000KT 10SM SCT100 SCT120 25/25 A3002 RMK AO2 T02450245
KSCD 170515Z AUTO 00000KT 10SM SCT042 SCT065 BKN110 25/25 A3003 RMK AO2 T02450245
KSCD 170455Z AUTO 27007KT 10SM SCT022 BKN041 OVC110 25/25 A3004 RMK AO2 T02470247
KSCD 170435Z AUTO 25007KT 10SM SCT014 BKN024 OVC031 25/25 A3004 RMK AO2 T02510251
KSCD 170415Z AUTO 00000KT 7SM SCT025 BKN060 OVC110 25/25 A3004 RMK AO2 LTG DSNT NW T02480248
KSCD 170355Z AUTO 00000KT 7SM BKN110 25/25 A3004 RMK AO2 T02480248
KSCD 170335Z AUTO 00000KT 7SM BKN110 25/25 A3004 RMK AO2 LTG DSNT W T02500250
KSCD 170315Z AUTO 00000KT 10SM BKN110 25/25 A3004 RMK AO2 T02510251
KSCD 170255Z AUTO 00000KT 10SM OVC110 26/26 A3004 RMK AO2 T02550255
KSCD 170235Z AUTO 00000KT 10SM OVC100 26/26 A3004 RMK AO2 T02560256
KSCD 170215Z AUTO 00000KT 10SM OVC090 26/26 A3004 RMK AO2 T02570257
KSCD 170155Z AUTO 00000KT 10SM BKN090 OVC120 26/26 A3003 RMK AO2 LTG DSNT S AND SW T02550255
KSCD 170135Z AUTO 00000KT 10SM BKN090 OVC120 26/26 A3002 RMK AO2 T02560256
KSCD 170115Z AUTO 00000KT 10SM BKN090 OVC110 26/26 A3001 RMK AO2 LTG DSNT NW T02580258
KSCD 170055Z AUTO 00000KT 10SM BKN110 27/25 A3000 RMK AO2 T02660252
KSCD 170035Z AUTO 00000KT 10SM OVC110 27/25 A3000 RMK AO2 LTG DSNT NW T02710246
KSCD 170015Z AUTO 00000KT 10SM OVC110 28/25 A3000 RMK AO2 LTG DSNT NW T02760247
KSCD 162355Z AUTO 23003KT 10SM BKN110 28/25 A3000 RMK AO2 60035 T02820247 10295 20233
KSCD 162335Z AUTO 24004KT 10SM BKN110 29/25 A3001 RMK AO2 LTG DSNT S T02860250
KSCD 162315Z AUTO 22004KT 10SM BKN110 29/25 A3001 RMK AO2 T02900250
KSCD 162255Z AUTO 00000KT 10SM SCT110 29/25 A3001 RMK AO2 T02900250
KSCD 162235Z AUTO 27003KT 10SM SCT011 SCT120 28/26 A3001 RMK AO2 T02840257
KSCD 162215Z AUTO 00000KT 10SM CLR 27/26 A3001 RMK AO2 T02730257
KSCD 162155Z AUTO 00000KT 10SM CLR 27/26 A3001 RMK AO2 P0001 T02700255
KSCD 162135Z AUTO 00000KT 10SM CLR 27/27 A3001 RMK AO2 P0001 T02710265
KSCD 162115Z AUTO 00000KT 10SM CLR 27/26 A3000 RMK AO2 T02650263
KSCD 162055Z AUTO 00000KT 10SM CLR 26/26 A3001 RMK AO2 60034 T02600260
KSCD 162035Z AUTO 00000KT 7SM SCT095 SCT120 26/26 A2999 RMK AO2 T02570257
KSCD 162015Z AUTO 00000KT 10SM SCT065 SCT075 BKN090 25/25 A3000 RMK AO2 T02500250
KSCD 161955Z AUTO 00000KT 10SM -DZ BKN110 25/25 A3001 RMK AO2 P0001 T02460246
KSCD 161935Z AUTO 00000KT 5SM -RA SCT110 25/25 A3002 RMK AO2 P0001 T02450245
KSCD 161915Z AUTO 00000KT 5SM RA SCT120 24/24 A3004 RMK AO2 LTG DSNT S P0001 T02410241
KSCD 161855Z AUTO 00000KT 3SM VCTSRA SCT021 SCT040 BKN110 24/24 A3006 RMK AO2 LTG DSNT S AND SW P0033 T02350235
KSCD 161835Z AUTO 31006KT 2 1/2SM +VCTSRA BKN021 BKN039 OVC100 24/24 A3009 RMK AO2 LTG DSNT S THRU NW P0014 T02360236
KSCD 161815Z AUTO 29014G20KT 10SM VCTS SCT018 BKN031 OVC044 29/24 A3009 RMK AO2 LTG DSNT S THRU W T02880243
KSCD 161755Z AUTO 28005KT 10SM SCT029 BKN044 BKN080 30/26 A3008 RMK AO2 LTG DSNT N T02950255 10295 20225
KSCD 161735Z AUTO 30005KT 10SM BKN025 BKN032 BKN038 29/25 A3008 RMK AO2 LTG DSNT N AND NW T02890253
KSCD 161715Z AUTO 26005KT 10SM SCT022 BKN029 OVC100 29/26 A3009 RMK AO2 T02900257
KSCD 161655Z AUTO 00000KT 10SM SCT018 BKN028 OVC120 29/25 A3009 RMK AO2 T02880254
KSCD 161635Z AUTO 26006KT 10SM BKN018 BKN060 BKN070 29/26 A3009 RMK AO2 LTG DSNT NW T02870257
KSCD 161615Z AUTO 22004KT 10SM SCT015 SCT060 SCT090 28/26 A3009 RMK AO2 LTG DSNT NW T02770258
KSCD 161555Z AUTO 25003KT 10SM SCT015 SCT100 27/26 A3009 RMK AO2 LTG DSNT NW T02730256
KSCD 161535Z AUTO 23003KT 10SM OVC013 27/25 A3009 RMK AO2 LTG DSNT NW T02670252
KSCD 161515Z AUTO 26003KT 10SM BKN013 BKN090 BKN110 26/25 A3009 RMK AO2 LTG DSNT NW T02640254
KSCD 161455Z AUTO 00000KT 10SM BKN011 BKN090 BKN110 26/25 A3009 RMK AO2 LTG DSNT NW T02610254
KSCD 161435Z AUTO 00000KT 7SM VCTS BKN009 BKN048 BKN070 26/25 A3009 RMK AO2 LTG DSNT W T02570253
KSCD 161415Z AUTO 00000KT 7SM OVC007 25/25 A3010 RMK AO2 LTG DSNT W T02450245
KSCD 161355Z AUTO 00000KT 7SM OVC005 24/24 A3009 RMK AO2 T02390239
KSCD 161335Z AUTO 00000KT 5SM BR OVC005 23/23 A3009 RMK AO2 LTG DSNT W T02320232
KSCD 161315Z AUTO 00000KT 5SM BR OVC003 23/23 A3009 RMK AO2 LTG DSNT NW T02300230
KSCD 161255Z AUTO 00000KT 4SM BR OVC003 23/23 A3008 RMK AO2 T02290229
KSCD 161235Z AUTO 00000KT 4SM BR OVC003 23/23 A3007 RMK AO2 T02270227
KSCD 161215Z AUTO 00000KT 4SM BR OVC003 23/23 A3007 RMK AO2 LTG DSNT NW T02260226
KSCD 161155Z AUTO 00000KT 4SM BR OVC003 23/23 A3007 RMK AO2 T02250225 10235 20218
KSCD 161135Z AUTO 00000KT 2 1/2SM BR OVC003 23/23 A3006 RMK AO2 T02250225
KSCD 161115Z AUTO 00000KT 1 1/2SM BR OVC003 22/22 A3006 RMK AO2 T02240224
KSCD 161055Z AUTO 00000KT 7SM OVC003 22/22 A3006 RMK AO2 T02230223
KSCD 161035Z AUTO 00000KT 5SM BR OVC003 23/23 A3005 RMK AO2 T02250225
KSCD 161015Z AUTO 00000KT 7SM OVC003 23/23 A3005 RMK AO2 T02250225
KSCD 160955Z AUTO 00000KT 1 1/2SM BR OVC003 22/22 A3005 RMK AO2 T02230223
KSCD 160935Z AUTO 00000KT 1/2SM FG OVC003 22/22 A3005 RMK AO2 T02220222
KSCD 160915Z AUTO 00000KT 3/4SM BR OVC003 22/22 A3005 RMK AO2 T02210221
KSCD 160855Z AUTO 00000KT 10SM SCT100 BKN120 22/22 A3005 RMK AO2 T02180218
KSCD 160835Z AUTO 00000KT 10SM OVC110 22/22 A3005 RMK AO2 T02200220
KSCD 160815Z AUTO 00000KT 10SM OVC110 22/22 A3005 RMK AO2 T02210221
KSCD 160755Z AUTO 00000KT 10SM OVC110 22/22 A3004 RMK AO2 T02220222
KSCD 160735Z AUTO 00000KT 10SM BKN110 22/22 A3004 RMK AO2 T02230223
KSCD 160715Z AUTO 00000KT 10SM OVC110 23/23 A3004 RMK AO2 T02250225
KSCD 160655Z AUTO 00000KT 10SM BKN110 23/23 A3003 RMK AO2 T02300230
KSCD 160635Z AUTO 00000KT 10SM BKN110 23/23 A3002 RMK AO2 T02310231
KSCD 160615Z AUTO 00000KT 10SM BKN110 23/23 A3003 RMK AO2 T02320232
KSCD 160555Z AUTO 00000KT 10SM BKN100 BKN120 23/23 A3004 RMK AO2 T02330233 10300 20231 403390231
KSCD 160535Z AUTO 00000KT 10SM BKN100 BKN120 24/24 A3004 RMK AO2 T02360236
KSCD 160515Z AUTO 00000KT 10SM OVC110 24/24 A3003 RMK AO2 T02360236
KSCD 160455Z AUTO 00000KT 10SM BKN110 24/24 A3004 RMK AO2 T02360236
KSCD 160435Z AUTO 00000KT 10SM OVC110 24/24 A3003 RMK AO2 T02370237
KSCD 160415Z AUTO 00000KT 10SM BKN110 23/23 A3003 RMK AO2 T02330233
KSCD 160355Z AUTO 00000KT 10SM BKN110 24/24 A3004 RMK AO2 T02350235
KSCD 160335Z AUTO 00000KT 10SM BKN110 24/24 A3005 RMK AO2 T02370237
KSCD 160315Z AUTO 00000KT 10SM SCT090 BKN110 24/23 A3006 RMK AO2 T02410231
KSCD 160255Z AUTO 00000KT 10SM VCTS BKN110 24/23 A3007 RMK AO2 LTG DSNT N AND SE T02420228
KSCD 160235Z AUTO 19007KT 10SM SCT100 24/23 A3007 RMK AO2 T02430225
KSCD 160215Z AUTO 20003KT 10SM CLR 25/22 A3007 RMK AO2 LTG DSNT N NE AND S T02450220
KSCD 160155Z AUTO 24009KT 10SM SCT110 25/22 A3006 RMK AO2 LTG DSNT N AND NW T02470215
KSCD 160135Z AUTO 28014G18KT 10SM VCTS SCT040 SCT095 BKN120 25/22 A3006 RMK AO2 LTG DSNT ALQS T02540216
KSCD 160115Z AUTO 28013G18KT 10SM VCTS SCT039 BKN085 26/23 A3007 RMK AO2 LTG DSNT S THRU NW T02620227
KSCD 160055Z AUTO 27009KT 10SM VCTS SCT085 27/24 A3006 RMK AO2 LTG DSNT S THRU NW T02720240
KSCD 160035Z AUTO 23006KT 10SM CLR 28/24 A3003 RMK AO2 LTG DSNT ALQS T02790243
KSCD 160015Z AUTO 23005KT 10SM CLR 29/25 A3002 RMK AO2 LTG DSNT S THRU W T02880245
KSCD 152355Z AUTO 15003KT 10SM CLR 30/23 A3002 RMK AO2 LTG DSNT S AND SW T03000229 10339 20300